sensor_id;sensor_type;location;lat;lon;timestamp;P1;durP1;ratioP1;P2;durP2;ratioP2
20283;SDS011;10301;50.832;4.080;2023-03-01T00:01:04;17.00;;;10.33;;
20283;SDS011;10301;50.832;4.080;2023-03-01T00:03:31;16.30;;;10.33;;
20283;SDS011;10301;50.832;4.080;2023-03-01T00:05:57;23.33;;;13.07;;
20283;SDS011;10301;50.832;4.080;2023-03-01T00:08:24;22.03;;;12.87;;
20283;SDS011;10301;50.832;4.080;2023-03-01T00:10:59;21.00;;;11.77;;
20283;SDS011;10301;50.832;4.080;2023-03-01T00:13:33;22.20;;;12.17;;
20283;SDS011;10301;50.832;4.080;2023-03-01T00:16:01;26.83;;;15.60;;
20283;SDS011;10301;50.832;4.080;2023-03-01T00:18:27;24.80;;;14.33;;
20283;SDS011;10301;50.832;4.080;2023-03-01T00:20:53;31.20;;;17.43;;
20283;SDS011;10301;50.832;4.080;2023-03-01T00:23:20;28.70;;;15.33;;
20283;SDS011;10301;50.832;4.080;2023-03-01T00:25:46;30.27;;;17.27;;
20283;SDS011;10301;50.832;4.080;2023-03-01T00:28:12;18.27;;;10.13;;
20283;SDS011;10301;50.832;4.080;2023-03-01T00:30:38;15.33;;;9.20;;
20283;SDS011;10301;50.832;4.080;2023-03-01T00:33:04;17.50;;;10.97;;
20283;SDS011;10301;50.832;4.080;2023-03-01T00:35:29;21.07;;;11.63;;
20283;SDS011;10301;50.832;4.080;2023-03-01T00:37:57;26.80;;;15.53;;
20283;SDS011;10301;50.832;4.080;2023-03-01T00:40:23;18.40;;;10.20;;
20283;SDS011;10301;50.832;4.080;2023-03-01T00:42:49;17.13;;;9.80;;
20283;SDS011;10301;50.832;4.080;2023-03-01T00:45:15;15.10;;;9.10;;
20283;SDS011;10301;50.832;4.080;2023-03-01T00:47:41;20.50;;;11.23;;
20283;SDS011;10301;50.832;4.080;2023-03-01T00:50:07;14.13;;;8.30;;
20283;SDS011;10301;50.832;4.080;2023-03-01T00:52:34;13.07;;;8.37;;
20283;SDS011;10301;50.832;4.080;2023-03-01T00:55:00;16.33;;;8.93;;
20283;SDS011;10301;50.832;4.080;2023-03-01T00:57:26;43.97;;;22.00;;
20283;SDS011;10301;50.832;4.080;2023-03-01T00:59:51;37.90;;;19.03;;
20283;SDS011;10301;50.832;4.080;2023-03-01T01:02:18;19.80;;;11.50;;
20283;SDS011;10301;50.832;4.080;2023-03-01T01:04:44;23.60;;;12.67;;
20283;SDS011;10301;50.832;4.080;2023-03-01T01:07:10;19.03;;;9.67;;
20283;SDS011;10301;50.832;4.080;2023-03-01T01:09:36;21.50;;;10.57;;
20283;SDS011;10301;50.832;4.080;2023-03-01T01:12:03;16.10;;;8.93;;
20283;SDS011;10301;50.832;4.080;2023-03-01T01:14:29;18.10;;;9.20;;
20283;SDS011;10301;50.832;4.080;2023-03-01T01:16:55;14.20;;;8.00;;
20283;SDS011;10301;50.832;4.080;2023-03-01T01:19:21;12.20;;;7.83;;
20283;SDS011;10301;50.832;4.080;2023-03-01T01:21:47;11.53;;;7.37;;
20283;SDS011;10301;50.832;4.080;2023-03-01T01:24:14;13.60;;;8.07;;
20283;SDS011;10301;50.832;4.080;2023-03-01T01:26:41;11.60;;;7.40;;
20283;SDS011;10301;50.832;4.080;2023-03-01T01:29:07;12.13;;;7.57;;
20283;SDS011;10301;50.832;4.080;2023-03-01T01:31:34;15.30;;;8.47;;
20283;SDS011;10301;50.832;4.080;2023-03-01T01:34:01;11.50;;;7.30;;
20283;SDS011;10301;50.832;4.080;2023-03-01T01:36:28;12.27;;;7.43;;
20283;SDS011;10301;50.832;4.080;2023-03-01T01:38:54;11.93;;;7.73;;
20283;SDS011;10301;50.832;4.080;2023-03-01T01:41:20;11.23;;;6.80;;
20283;SDS011;10301;50.832;4.080;2023-03-01T01:43:47;13.60;;;7.00;;
20283;SDS011;10301;50.832;4.080;2023-03-01T01:46:33;12.57;;;7.50;;
20283;SDS011;10301;50.832;4.080;2023-03-01T01:49:04;13.57;;;7.13;;
20283;SDS011;10301;50.832;4.080;2023-03-01T01:51:37;13.23;;;7.90;;
20283;SDS011;10301;50.832;4.080;2023-03-01T01:54:11;12.43;;;7.37;;
20283;SDS011;10301;50.832;4.080;2023-03-01T01:56:41;14.37;;;7.70;;
20283;SDS011;10301;50.832;4.080;2023-03-01T01:59:11;16.47;;;7.63;;
20283;SDS011;10301;50.832;4.080;2023-03-01T02:01:37;13.37;;;7.53;;
20283;SDS011;10301;50.832;4.080;2023-03-01T02:04:03;13.17;;;7.50;;
20283;SDS011;10301;50.832;4.080;2023-03-01T02:06:32;12.23;;;7.03;;
20283;SDS011;10301;50.832;4.080;2023-03-01T02:09:04;12.37;;;7.23;;
20283;SDS011;10301;50.832;4.080;2023-03-01T02:11:36;13.23;;;7.30;;
20283;SDS011;10301;50.832;4.080;2023-03-01T02:14:02;13.63;;;7.77;;
20283;SDS011;10301;50.832;4.080;2023-03-01T02:16:28;13.07;;;7.00;;
20283;SDS011;10301;50.832;4.080;2023-03-01T02:18:56;10.50;;;6.40;;
20283;SDS011;10301;50.832;4.080;2023-03-01T02:24:54;11.93;;;7.30;;
20283;SDS011;10301;50.832;4.080;2023-03-01T02:27:07;12.50;;;7.23;;
20283;SDS011;10301;50.832;4.080;2023-03-01T02:29:34;11.13;;;7.23;;
20283;SDS011;10301;50.832;4.080;2023-03-01T02:32:00;11.93;;;7.17;;
20283;SDS011;10301;50.832;4.080;2023-03-01T02:34:28;11.27;;;6.90;;
20283;SDS011;10301;50.832;4.080;2023-03-01T02:37:04;12.97;;;7.90;;
20283;SDS011;10301;50.832;4.080;2023-03-01T02:39:39;12.83;;;7.37;;
20283;SDS011;10301;50.832;4.080;2023-03-01T02:42:09;12.13;;;6.97;;
20283;SDS011;10301;50.832;4.080;2023-03-01T02:44:39;13.10;;;6.77;;
20283;SDS011;10301;50.832;4.080;2023-03-01T02:47:05;12.03;;;7.03;;
20283;SDS011;10301;50.832;4.080;2023-03-01T02:49:32;12.13;;;7.47;;
20283;SDS011;10301;50.832;4.080;2023-03-01T02:57:01;19.40;;;9.23;;
20283;SDS011;10301;50.832;4.080;2023-03-01T02:59:29;18.80;;;8.70;;
20283;SDS011;10301;50.832;4.080;2023-03-01T03:01:59;17.93;;;8.87;;
20283;SDS011;10301;50.832;4.080;2023-03-01T03:04:26;16.80;;;8.97;;
20283;SDS011;10301;50.832;4.080;2023-03-01T03:06:51;15.23;;;8.37;;
20283;SDS011;10301;50.832;4.080;2023-03-01T03:09:17;13.10;;;7.80;;
20283;SDS011;10301;50.832;4.080;2023-03-01T03:11:44;14.00;;;7.70;;
20283;SDS011;10301;50.832;4.080;2023-03-01T03:14:10;15.77;;;7.70;;
20283;SDS011;10301;50.832;4.080;2023-03-01T03:16:42;14.60;;;7.43;;
20283;SDS011;10301;50.832;4.080;2023-03-01T03:19:09;13.40;;;7.60;;
20283;SDS011;10301;50.832;4.080;2023-03-01T03:21:36;11.83;;;7.70;;
20283;SDS011;10301;50.832;4.080;2023-03-01T03:24:02;13.20;;;7.70;;
20283;SDS011;10301;50.832;4.080;2023-03-01T03:26:29;12.43;;;7.30;;
20283;SDS011;10301;50.832;4.080;2023-03-01T03:28:54;12.97;;;7.60;;
20283;SDS011;10301;50.832;4.080;2023-03-01T03:31:20;12.97;;;7.63;;
20283;SDS011;10301;50.832;4.080;2023-03-01T03:33:46;12.53;;;7.40;;
20283;SDS011;10301;50.832;4.080;2023-03-01T03:36:16;13.53;;;8.17;;
20283;SDS011;10301;50.832;4.080;2023-03-01T03:38:43;13.70;;;7.70;;
20283;SDS011;10301;50.832;4.080;2023-03-01T03:41:10;15.27;;;7.93;;
20283;SDS011;10301;50.832;4.080;2023-03-01T03:43:38;14.37;;;8.33;;
20283;SDS011;10301;50.832;4.080;2023-03-01T03:46:05;13.63;;;8.17;;
20283;SDS011;10301;50.832;4.080;2023-03-01T03:48:32;15.07;;;8.13;;
20283;SDS011;10301;50.832;4.080;2023-03-01T03:50:59;14.27;;;8.37;;
20283;SDS011;10301;50.832;4.080;2023-03-01T03:53:25;14.40;;;8.07;;
20283;SDS011;10301;50.832;4.080;2023-03-01T03:55:52;15.47;;;8.67;;
20283;SDS011;10301;50.832;4.080;2023-03-01T03:58:18;14.20;;;8.53;;
20283;SDS011;10301;50.832;4.080;2023-03-01T04:00:46;14.37;;;9.53;;
20283;SDS011;10301;50.832;4.080;2023-03-01T04:03:14;15.27;;;8.50;;
20283;SDS011;10301;50.832;4.080;2023-03-01T04:05:41;13.47;;;7.73;;
20283;SDS011;10301;50.832;4.080;2023-03-01T04:08:07;13.80;;;7.80;;
20283;SDS011;10301;50.832;4.080;2023-03-01T04:10:38;14.10;;;8.03;;
20283;SDS011;10301;50.832;4.080;2023-03-01T04:13:13;15.07;;;8.70;;
20283;SDS011;10301;50.832;4.080;2023-03-01T04:15:41;15.53;;;8.53;;
20283;SDS011;10301;50.832;4.080;2023-03-01T04:18:14;14.87;;;8.47;;
20283;SDS011;10301;50.832;4.080;2023-03-01T04:20:41;18.47;;;9.27;;
20283;SDS011;10301;50.832;4.080;2023-03-01T04:23:09;14.17;;;8.43;;
20283;SDS011;10301;50.832;4.080;2023-03-01T04:25:41;17.23;;;9.00;;
20283;SDS011;10301;50.832;4.080;2023-03-01T04:28:14;14.30;;;8.80;;
20283;SDS011;10301;50.832;4.080;2023-03-01T04:30:40;16.10;;;8.80;;
20283;SDS011;10301;50.832;4.080;2023-03-01T04:33:07;15.53;;;8.57;;
20283;SDS011;10301;50.832;4.080;2023-03-01T04:35:34;15.93;;;8.57;;
20283;SDS011;10301;50.832;4.080;2023-03-01T04:38:01;15.17;;;9.37;;
20283;SDS011;10301;50.832;4.080;2023-03-01T04:40:26;15.10;;;9.13;;
20283;SDS011;10301;50.832;4.080;2023-03-01T04:42:52;14.20;;;8.40;;
20283;SDS011;10301;50.832;4.080;2023-03-01T04:45:18;15.63;;;8.17;;
20283;SDS011;10301;50.832;4.080;2023-03-01T04:47:44;13.73;;;8.70;;
20283;SDS011;10301;50.832;4.080;2023-03-01T04:50:12;15.40;;;8.63;;
20283;SDS011;10301;50.832;4.080;2023-03-01T04:52:39;14.70;;;8.43;;
20283;SDS011;10301;50.832;4.080;2023-03-01T04:55:05;15.90;;;8.97;;
20283;SDS011;10301;50.832;4.080;2023-03-01T04:57:31;18.80;;;9.63;;
20283;SDS011;10301;50.832;4.080;2023-03-01T04:59:57;14.90;;;8.17;;
20283;SDS011;10301;50.832;4.080;2023-03-01T05:02:23;15.47;;;8.57;;
20283;SDS011;10301;50.832;4.080;2023-03-01T05:04:48;16.93;;;8.53;;
20283;SDS011;10301;50.832;4.080;2023-03-01T05:07:14;15.60;;;9.20;;
20283;SDS011;10301;50.832;4.080;2023-03-01T05:09:47;14.67;;;7.63;;
20283;SDS011;10301;50.832;4.080;2023-03-01T05:12:13;14.23;;;7.77;;
20283;SDS011;10301;50.832;4.080;2023-03-01T05:14:40;16.67;;;8.53;;
20283;SDS011;10301;50.832;4.080;2023-03-01T05:17:06;14.63;;;9.13;;
20283;SDS011;10301;50.832;4.080;2023-03-01T05:19:32;14.63;;;8.67;;
20283;SDS011;10301;50.832;4.080;2023-03-01T05:21:59;11.93;;;8.03;;
20283;SDS011;10301;50.832;4.080;2023-03-01T05:24:29;14.77;;;8.30;;
20283;SDS011;10301;50.832;4.080;2023-03-01T05:26:56;13.53;;;8.37;;
20283;SDS011;10301;50.832;4.080;2023-03-01T05:29:22;14.03;;;8.83;;
20283;SDS011;10301;50.832;4.080;2023-03-01T05:31:55;17.07;;;8.53;;
20283;SDS011;10301;50.832;4.080;2023-03-01T05:34:26;15.10;;;8.27;;
20283;SDS011;10301;50.832;4.080;2023-03-01T05:36:57;16.10;;;8.47;;
20283;SDS011;10301;50.832;4.080;2023-03-01T05:39:24;15.77;;;8.37;;
20283;SDS011;10301;50.832;4.080;2023-03-01T05:41:57;20.33;;;9.33;;
20283;SDS011;10301;50.832;4.080;2023-03-01T05:44:24;14.97;;;7.73;;
20283;SDS011;10301;50.832;4.080;2023-03-01T05:46:50;17.50;;;9.93;;
20283;SDS011;10301;50.832;4.080;2023-03-01T05:49:16;15.87;;;9.73;;
20283;SDS011;10301;50.832;4.080;2023-03-01T05:51:42;16.37;;;8.53;;
20283;SDS011;10301;50.832;4.080;2023-03-01T05:54:12;18.23;;;8.57;;
20283;SDS011;10301;50.832;4.080;2023-03-01T05:56:38;17.03;;;9.33;;
20283;SDS011;10301;50.832;4.080;2023-03-01T05:59:04;15.70;;;9.10;;
20283;SDS011;10301;50.832;4.080;2023-03-01T06:01:30;15.77;;;8.33;;
20283;SDS011;10301;50.832;4.080;2023-03-01T06:03:56;16.43;;;8.30;;
20283;SDS011;10301;50.832;4.080;2023-03-01T06:06:22;15.00;;;8.57;;
20283;SDS011;10301;50.832;4.080;2023-03-01T06:08:49;16.50;;;9.37;;
20283;SDS011;10301;50.832;4.080;2023-03-01T06:11:15;16.83;;;8.83;;
20283;SDS011;10301;50.832;4.080;2023-03-01T06:13:41;18.87;;;8.80;;
20283;SDS011;10301;50.832;4.080;2023-03-01T06:16:08;16.87;;;9.33;;
20283;SDS011;10301;50.832;4.080;2023-03-01T06:18:34;20.53;;;9.77;;
20283;SDS011;10301;50.832;4.080;2023-03-01T06:20:59;20.40;;;10.63;;
20283;SDS011;10301;50.832;4.080;2023-03-01T06:23:25;16.77;;;8.77;;
20283;SDS011;10301;50.832;4.080;2023-03-01T06:25:51;16.60;;;9.60;;
20283;SDS011;10301;50.832;4.080;2023-03-01T06:28:17;18.10;;;11.87;;
20283;SDS011;10301;50.832;4.080;2023-03-01T06:30:42;17.73;;;10.13;;
20283;SDS011;10301;50.832;4.080;2023-03-01T06:33:08;18.30;;;10.27;;
20283;SDS011;10301;50.832;4.080;2023-03-01T06:35:34;13.63;;;9.00;;
20283;SDS011;10301;50.832;4.080;2023-03-01T06:38:00;16.47;;;9.43;;
20283;SDS011;10301;50.832;4.080;2023-03-01T06:40:27;15.97;;;9.20;;
20283;SDS011;10301;50.832;4.080;2023-03-01T06:42:54;16.27;;;9.20;;
20283;SDS011;10301;50.832;4.080;2023-03-01T06:45:20;18.90;;;10.00;;
20283;SDS011;10301;50.832;4.080;2023-03-01T06:47:46;16.50;;;9.20;;
20283;SDS011;10301;50.832;4.080;2023-03-01T06:50:12;18.27;;;8.90;;
20283;SDS011;10301;50.832;4.080;2023-03-01T06:52:40;15.30;;;9.43;;
20283;SDS011;10301;50.832;4.080;2023-03-01T06:55:06;19.47;;;12.77;;
20283;SDS011;10301;50.832;4.080;2023-03-01T06:57:32;21.03;;;10.30;;
20283;SDS011;10301;50.832;4.080;2023-03-01T06:59:57;20.80;;;10.63;;
20283;SDS011;10301;50.832;4.080;2023-03-01T07:02:23;17.20;;;9.47;;
20283;SDS011;10301;50.832;4.080;2023-03-01T07:04:49;22.33;;;11.63;;
20283;SDS011;10301;50.832;4.080;2023-03-01T07:07:16;20.43;;;12.00;;
20283;SDS011;10301;50.832;4.080;2023-03-01T07:09:43;17.77;;;10.43;;
20283;SDS011;10301;50.832;4.080;2023-03-01T07:12:09;17.17;;;9.20;;
20283;SDS011;10301;50.832;4.080;2023-03-01T07:14:35;16.63;;;9.47;;
20283;SDS011;10301;50.832;4.080;2023-03-01T07:17:01;17.30;;;10.23;;
20283;SDS011;10301;50.832;4.080;2023-03-01T07:19:27;15.43;;;8.70;;
20283;SDS011;10301;50.832;4.080;2023-03-01T07:21:52;17.70;;;9.20;;
20283;SDS011;10301;50.832;4.080;2023-03-01T07:24:18;15.80;;;8.43;;
20283;SDS011;10301;50.832;4.080;2023-03-01T07:26:47;16.03;;;8.67;;
20283;SDS011;10301;50.832;4.080;2023-03-01T07:29:14;19.67;;;9.37;;
20283;SDS011;10301;50.832;4.080;2023-03-01T07:31:40;15.40;;;8.80;;
20283;SDS011;10301;50.832;4.080;2023-03-01T07:34:06;16.70;;;8.70;;
20283;SDS011;10301;50.832;4.080;2023-03-01T07:36:32;16.80;;;9.47;;
20283;SDS011;10301;50.832;4.080;2023-03-01T07:38:57;15.13;;;9.33;;
20283;SDS011;10301;50.832;4.080;2023-03-01T07:41:23;14.90;;;8.87;;
20283;SDS011;10301;50.832;4.080;2023-03-01T07:43:49;15.50;;;8.77;;
20283;SDS011;10301;50.832;4.080;2023-03-01T07:46:15;13.80;;;9.10;;
20283;SDS011;10301;50.832;4.080;2023-03-01T07:48:40;15.33;;;10.83;;
20283;SDS011;10301;50.832;4.080;2023-03-01T07:51:06;18.73;;;9.00;;
20283;SDS011;10301;50.832;4.080;2023-03-01T07:53:32;20.03;;;10.33;;
20283;SDS011;10301;50.832;4.080;2023-03-01T07:56:17;16.03;;;9.37;;
20283;SDS011;10301;50.832;4.080;2023-03-01T07:58:43;14.57;;;9.03;;
20283;SDS011;10301;50.832;4.080;2023-03-01T08:01:11;20.47;;;9.53;;
20283;SDS011;10301;50.832;4.080;2023-03-01T08:03:39;12.50;;;8.70;;
20283;SDS011;10301;50.832;4.080;2023-03-01T08:06:06;14.17;;;8.90;;
20283;SDS011;10301;50.832;4.080;2023-03-01T08:08:33;15.53;;;9.03;;
20283;SDS011;10301;50.832;4.080;2023-03-01T08:11:01;17.83;;;8.77;;
20283;SDS011;10301;50.832;4.080;2023-03-01T08:13:28;15.67;;;9.13;;
20283;SDS011;10301;50.832;4.080;2023-03-01T08:15:54;16.17;;;9.73;;
20283;SDS011;10301;50.832;4.080;2023-03-01T08:18:25;17.90;;;11.87;;
20283;SDS011;10301;50.832;4.080;2023-03-01T08:20:50;16.17;;;10.23;;
20283;SDS011;10301;50.832;4.080;2023-03-01T08:23:16;16.60;;;10.30;;
20283;SDS011;10301;50.832;4.080;2023-03-01T08:25:42;16.30;;;9.80;;
20283;SDS011;10301;50.832;4.080;2023-03-01T08:28:07;15.80;;;9.03;;
20283;SDS011;10301;50.832;4.080;2023-03-01T08:30:33;16.30;;;9.63;;
20283;SDS011;10301;50.832;4.080;2023-03-01T08:32:59;17.13;;;9.80;;
20283;SDS011;10301;50.832;4.080;2023-03-01T08:35:25;16.23;;;9.67;;
20283;SDS011;10301;50.832;4.080;2023-03-01T08:37:50;16.50;;;10.23;;
20283;SDS011;10301;50.832;4.080;2023-03-01T08:40:16;16.50;;;9.33;;
20283;SDS011;10301;50.832;4.080;2023-03-01T08:42:42;16.23;;;10.03;;
20283;SDS011;10301;50.832;4.080;2023-03-01T08:45:08;18.43;;;10.30;;
20283;SDS011;10301;50.832;4.080;2023-03-01T08:47:34;17.17;;;8.53;;
20283;SDS011;10301;50.832;4.080;2023-03-01T08:50:00;14.33;;;8.67;;
20283;SDS011;10301;50.832;4.080;2023-03-01T08:52:26;16.93;;;11.13;;
20283;SDS011;10301;50.832;4.080;2023-03-01T08:54:52;16.17;;;10.17;;
20283;SDS011;10301;50.832;4.080;2023-03-01T08:57:18;19.63;;;10.87;;
20283;SDS011;10301;50.832;4.080;2023-03-01T08:59:44;16.27;;;10.03;;
20283;SDS011;10301;50.832;4.080;2023-03-01T09:02:13;15.30;;;9.67;;
20283;SDS011;10301;50.832;4.080;2023-03-01T09:04:41;17.97;;;10.50;;
20283;SDS011;10301;50.832;4.080;2023-03-01T09:07:07;19.83;;;9.47;;
20283;SDS011;10301;50.832;4.080;2023-03-01T09:09:33;19.70;;;9.90;;
20283;SDS011;10301;50.832;4.080;2023-03-01T09:11:59;18.50;;;9.80;;
20283;SDS011;10301;50.832;4.080;2023-03-01T09:14:25;17.53;;;9.90;;
20283;SDS011;10301;50.832;4.080;2023-03-01T09:16:51;16.80;;;10.67;;
20283;SDS011;10301;50.832;4.080;2023-03-01T09:19:16;17.47;;;9.50;;
20283;SDS011;10301;50.832;4.080;2023-03-01T09:21:42;16.57;;;8.93;;
20283;SDS011;10301;50.832;4.080;2023-03-01T09:24:17;15.70;;;10.07;;
20283;SDS011;10301;50.832;4.080;2023-03-01T09:26:44;16.30;;;9.57;;
20283;SDS011;10301;50.832;4.080;2023-03-01T09:29:11;15.80;;;8.90;;
20283;SDS011;10301;50.832;4.080;2023-03-01T09:31:38;19.37;;;9.10;;
20283;SDS011;10301;50.832;4.080;2023-03-01T09:34:04;18.40;;;8.87;;
20283;SDS011;10301;50.832;4.080;2023-03-01T09:36:30;14.77;;;8.63;;
20283;SDS011;10301;50.832;4.080;2023-03-01T09:38:57;16.70;;;9.77;;
20283;SDS011;10301;50.832;4.080;2023-03-01T09:44:08;14.43;;;8.60;;
20283;SDS011;10301;50.832;4.080;2023-03-01T09:46:56;17.00;;;8.40;;
20283;SDS011;10301;50.832;4.080;2023-03-01T09:49:41;16.83;;;9.23;;
20283;SDS011;10301;50.832;4.080;2023-03-01T09:55:01;14.63;;;8.90;;
20283;SDS011;10301;50.832;4.080;2023-03-01T09:57:36;18.63;;;9.87;;
20283;SDS011;10301;50.832;4.080;2023-03-01T10:05:35;16.93;;;8.77;;
20283;SDS011;10301;50.832;4.080;2023-03-01T10:10:56;18.87;;;9.37;;
20283;SDS011;10301;50.832;4.080;2023-03-01T10:14:05;20.77;;;11.70;;
20283;SDS011;10301;50.832;4.080;2023-03-01T10:18:59;17.20;;;9.70;;
20283;SDS011;10301;50.832;4.080;2023-03-01T10:21:28;15.87;;;9.50;;
20283;SDS011;10301;50.832;4.080;2023-03-01T10:23:57;18.30;;;9.67;;
20283;SDS011;10301;50.832;4.080;2023-03-01T10:27:07;16.20;;;9.03;;
20283;SDS011;10301;50.832;4.080;2023-03-01T10:32:25;16.07;;;8.93;;
20283;SDS011;10301;50.832;4.080;2023-03-01T10:34:51;17.77;;;9.77;;
20283;SDS011;10301;50.832;4.080;2023-03-01T10:37:18;16.43;;;9.53;;
20283;SDS011;10301;50.832;4.080;2023-03-01T10:42:32;14.57;;;9.83;;
20283;SDS011;10301;50.832;4.080;2023-03-01T10:48:04;16.67;;;9.20;;
20283;SDS011;10301;50.832;4.080;2023-03-01T10:50:31;15.83;;;10.13;;
20283;SDS011;10301;50.832;4.080;2023-03-01T10:53:00;18.20;;;9.73;;
20283;SDS011;10301;50.832;4.080;2023-03-01T10:55:38;13.77;;;8.53;;
20283;SDS011;10301;50.832;4.080;2023-03-01T11:00:59;16.70;;;9.00;;
20283;SDS011;10301;50.832;4.080;2023-03-01T11:03:31;15.93;;;9.73;;
20283;SDS011;10301;50.832;4.080;2023-03-01T11:08:43;17.77;;;9.63;;
20283;SDS011;10301;50.832;4.080;2023-03-01T11:16:43;15.97;;;9.10;;
20283;SDS011;10301;50.832;4.080;2023-03-01T11:24:42;15.03;;;8.83;;
20283;SDS011;10301;50.832;4.080;2023-03-01T11:29:45;13.07;;;8.23;;
20283;SDS011;10301;50.832;4.080;2023-03-01T11:32:16;15.33;;;9.03;;
20283;SDS011;10301;50.832;4.080;2023-03-01T11:34:51;17.03;;;9.40;;
20283;SDS011;10301;50.832;4.080;2023-03-01T11:51:38;14.50;;;8.27;;
20283;SDS011;10301;50.832;4.080;2023-03-01T11:56:46;12.77;;;8.40;;
20283;SDS011;10301;50.832;4.080;2023-03-01T12:02:27;14.30;;;8.10;;
20283;SDS011;10301;50.832;4.080;2023-03-01T12:05:19;14.00;;;8.67;;
20283;SDS011;10301;50.832;4.080;2023-03-01T12:08:17;14.67;;;8.53;;
20283;SDS011;10301;50.832;4.080;2023-03-01T12:10:55;15.07;;;8.77;;
20283;SDS011;10301;50.832;4.080;2023-03-01T12:22:13;15.50;;;8.40;;
20283;SDS011;10301;50.832;4.080;2023-03-01T12:25:23;17.27;;;8.90;;
20283;SDS011;10301;50.832;4.080;2023-03-01T12:38:59;13.43;;;8.20;;
20283;SDS011;10301;50.832;4.080;2023-03-01T12:44:47;15.10;;;8.23;;
20283;SDS011;10301;50.832;4.080;2023-03-01T12:50:17;13.70;;;8.13;;
20283;SDS011;10301;50.832;4.080;2023-03-01T12:52:47;17.27;;;7.70;;
20283;SDS011;10301;50.832;4.080;2023-03-01T12:55:55;13.97;;;7.67;;
20283;SDS011;10301;50.832;4.080;2023-03-01T13:17:53;14.27;;;7.73;;
20283;SDS011;10301;50.832;4.080;2023-03-01T13:20:23;11.33;;;7.47;;
20283;SDS011;10301;50.832;4.080;2023-03-01T13:37:08;16.57;;;9.20;;
20283;SDS011;10301;50.832;4.080;2023-03-01T13:41:50;11.10;;;6.50;;
20283;SDS011;10301;50.832;4.080;2023-03-01T13:46:52;14.23;;;8.23;;
20283;SDS011;10301;50.832;4.080;2023-03-01T13:49:23;13.27;;;8.23;;
20283;SDS011;10301;50.832;4.080;2023-03-01T13:51:52;11.30;;;6.93;;
20283;SDS011;10301;50.832;4.080;2023-03-01T13:54:30;12.67;;;7.87;;
20283;SDS011;10301;50.832;4.080;2023-03-01T13:56:58;13.17;;;7.30;;
20283;SDS011;10301;50.832;4.080;2023-03-01T13:59:26;12.00;;;7.80;;
20283;SDS011;10301;50.832;4.080;2023-03-01T14:02:01;13.83;;;8.83;;
20283;SDS011;10301;50.832;4.080;2023-03-01T14:04:27;12.07;;;7.00;;
20283;SDS011;10301;50.832;4.080;2023-03-01T14:09:59;12.63;;;7.60;;
20283;SDS011;10301;50.832;4.080;2023-03-01T14:12:44;12.17;;;6.73;;
20283;SDS011;10301;50.832;4.080;2023-03-01T14:20:26;11.93;;;6.83;;
20283;SDS011;10301;50.832;4.080;2023-03-01T14:22:58;13.17;;;7.70;;
20283;SDS011;10301;50.832;4.080;2023-03-01T14:25:27;10.57;;;5.97;;
20283;SDS011;10301;50.832;4.080;2023-03-01T14:27:59;12.77;;;7.30;;
20283;SDS011;10301;50.832;4.080;2023-03-01T14:30:27;10.87;;;6.90;;
20283;SDS011;10301;50.832;4.080;2023-03-01T14:33:33;15.43;;;6.87;;
20283;SDS011;10301;50.832;4.080;2023-03-01T14:36:13;11.23;;;6.97;;
20283;SDS011;10301;50.832;4.080;2023-03-01T14:43:40;12.10;;;7.60;;
20283;SDS011;10301;50.832;4.080;2023-03-01T14:46:23;11.63;;;7.03;;
20283;SDS011;10301;50.832;4.080;2023-03-01T14:48:53;14.67;;;8.07;;
20283;SDS011;10301;50.832;4.080;2023-03-01T14:51:23;12.80;;;6.57;;
20283;SDS011;10301;50.832;4.080;2023-03-01T14:53:49;14.83;;;7.70;;
20283;SDS011;10301;50.832;4.080;2023-03-01T14:56:16;11.27;;;7.23;;
20283;SDS011;10301;50.832;4.080;2023-03-01T14:58:45;13.13;;;6.97;;
20283;SDS011;10301;50.832;4.080;2023-03-01T15:01:15;12.80;;;7.10;;
20283;SDS011;10301;50.832;4.080;2023-03-01T15:03:44;12.50;;;7.40;;
20283;SDS011;10301;50.832;4.080;2023-03-01T15:06:14;13.23;;;7.77;;
20283;SDS011;10301;50.832;4.080;2023-03-01T15:08:42;12.20;;;6.67;;
20283;SDS011;10301;50.832;4.080;2023-03-01T15:11:27;12.83;;;6.97;;
20283;SDS011;10301;50.832;4.080;2023-03-01T15:13:57;11.23;;;7.80;;
20283;SDS011;10301;50.832;4.080;2023-03-01T15:16:24;11.63;;;6.23;;
20283;SDS011;10301;50.832;4.080;2023-03-01T15:19:03;13.03;;;7.40;;
20283;SDS011;10301;50.832;4.080;2023-03-01T15:21:34;13.70;;;7.97;;
20283;SDS011;10301;50.832;4.080;2023-03-01T15:24:24;13.37;;;7.83;;
20283;SDS011;10301;50.832;4.080;2023-03-01T15:26:56;14.87;;;7.47;;
20283;SDS011;10301;50.832;4.080;2023-03-01T15:29:27;14.50;;;7.77;;
20283;SDS011;10301;50.832;4.080;2023-03-01T15:34:49;13.73;;;7.87;;
20283;SDS011;10301;50.832;4.080;2023-03-01T15:42:57;14.20;;;7.63;;
20283;SDS011;10301;50.832;4.080;2023-03-01T15:45:24;9.93;;;6.37;;
20283;SDS011;10301;50.832;4.080;2023-03-01T15:47:56;10.83;;;7.10;;
20283;SDS011;10301;50.832;4.080;2023-03-01T15:52:51;13.27;;;7.67;;
20283;SDS011;10301;50.832;4.080;2023-03-01T15:57:48;13.00;;;7.30;;
20283;SDS011;10301;50.832;4.080;2023-03-01T16:00:15;12.13;;;7.87;;
20283;SDS011;10301;50.832;4.080;2023-03-01T16:02:42;13.90;;;8.63;;
20283;SDS011;10301;50.832;4.080;2023-03-01T16:07:45;14.77;;;8.27;;
20283;SDS011;10301;50.832;4.080;2023-03-01T16:10:11;15.13;;;9.23;;
20283;SDS011;10301;50.832;4.080;2023-03-01T16:12:37;11.57;;;7.77;;
20283;SDS011;10301;50.832;4.080;2023-03-01T16:15:04;17.00;;;8.57;;
20283;SDS011;10301;50.832;4.080;2023-03-01T16:17:37;13.30;;;8.10;;
20283;SDS011;10301;50.832;4.080;2023-03-01T16:20:02;13.00;;;7.80;;
20283;SDS011;10301;50.832;4.080;2023-03-01T16:22:29;14.57;;;9.80;;
20283;SDS011;10301;50.832;4.080;2023-03-01T16:24:54;14.80;;;9.33;;
20283;SDS011;10301;50.832;4.080;2023-03-01T16:27:20;13.53;;;8.53;;
20283;SDS011;10301;50.832;4.080;2023-03-01T16:29:46;14.93;;;8.87;;
20283;SDS011;10301;50.832;4.080;2023-03-01T16:32:11;16.27;;;10.63;;
20283;SDS011;10301;50.832;4.080;2023-03-01T16:34:37;15.37;;;8.80;;
20283;SDS011;10301;50.832;4.080;2023-03-01T16:37:03;18.33;;;8.80;;
20283;SDS011;10301;50.832;4.080;2023-03-01T16:39:28;15.00;;;8.53;;
20283;SDS011;10301;50.832;4.080;2023-03-01T16:41:54;17.80;;;9.50;;
20283;SDS011;10301;50.832;4.080;2023-03-01T16:44:20;19.83;;;11.03;;
20283;SDS011;10301;50.832;4.080;2023-03-01T16:46:45;22.70;;;10.70;;
20283;SDS011;10301;50.832;4.080;2023-03-01T16:49:11;17.83;;;10.27;;
20283;SDS011;10301;50.832;4.080;2023-03-01T16:51:37;15.53;;;10.67;;
20283;SDS011;10301;50.832;4.080;2023-03-01T16:54:02;16.27;;;10.90;;
20283;SDS011;10301;50.832;4.080;2023-03-01T16:56:29;14.77;;;8.90;;
20283;SDS011;10301;50.832;4.080;2023-03-01T16:58:57;14.60;;;10.03;;
20283;SDS011;10301;50.832;4.080;2023-03-01T17:01:23;15.23;;;9.40;;
20283;SDS011;10301;50.832;4.080;2023-03-01T17:03:50;14.30;;;8.53;;
20283;SDS011;10301;50.832;4.080;2023-03-01T17:06:17;15.80;;;9.20;;
20283;SDS011;10301;50.832;4.080;2023-03-01T17:08:45;14.57;;;9.27;;
20283;SDS011;10301;50.832;4.080;2023-03-01T17:11:12;14.63;;;9.47;;
20283;SDS011;10301;50.832;4.080;2023-03-01T17:13:40;14.57;;;8.30;;
20283;SDS011;10301;50.832;4.080;2023-03-01T17:16:07;15.60;;;9.00;;
20283;SDS011;10301;50.832;4.080;2023-03-01T17:18:34;14.83;;;9.63;;
20283;SDS011;10301;50.832;4.080;2023-03-01T17:21:00;17.03;;;9.47;;
20283;SDS011;10301;50.832;4.080;2023-03-01T17:23:27;14.77;;;9.10;;
20283;SDS011;10301;50.832;4.080;2023-03-01T17:25:54;13.53;;;8.40;;
20283;SDS011;10301;50.832;4.080;2023-03-01T17:28:24;16.00;;;8.40;;